• Join FlightAware (Why Join?)
  • Login
  • US Flag 
08:51AM EST


 

Airport Tracker/Info


-or-


 

Live Flight TrackerFlight Track Log ✈ N1944E ✈ 22-Jun-2013 ✈ KCOD - KSLC

Flight Track Log - Related Links

Times and Time Zones

All times are in EDT time to prevent confusion due to time zone crossing. See the N1944E flight status page for this flight to view local times or setup timezone preferences in your user account.

Time Position Orientation Groundspeed Altitude Reporting Facility
EDT Latitude Longitude Course Direction KTS MPH feet Rate Location/Type
08:37AM 44.3219 -109.2622 211° Southwest 108 124 13,100  Level Salt Lake Center
08:38AM 44.2986 -109.2900 220° Southwest 113 130 14,000 780 Climbing Salt Lake Center
08:39AM 44.2747 -109.3178 220° Southwest 114 131 14,700 840 Climbing Salt Lake Center
08:40AM 44.2980 -109.2119 211° Southwest  Level Estimated
08:40AM 44.2508 -109.3467 221° Southwest 116 133 15,800  Level Salt Lake Center
08:41AM 44.2609 -109.2431 211° Southwest  Level Estimated
08:41AM 44.2231 -109.3761 217° Southwest 115 132 17,200  Level Salt Lake Center
08:42AM 44.2238 -109.2742 211° Southwest  Level Estimated
08:42AM 44.2047 -109.4000 223° Southwest 108 124 17,800  Level Salt Lake Center
08:43AM 44.1842 -109.4256 222° Southwest 104 120 18,100 60 Climbing Salt Lake Center
08:44AM 44.1544 -109.4611 221° Southwest 112 129 18,000 -60 Descending Salt Lake Center
08:45AM 44.1244 -109.4950 219° Southwest 125 144 18,000  Level Salt Lake Center
08:46AM 44.0931 -109.5325 221° Southwest 139 160 18,000 -60 Level Salt Lake Center
08:47AM 44.0572 -109.5769 222° Southwest 148 170 17,900 -60 Descending Salt Lake Center
08:48AM 44.0281 -109.6136 222° Southwest 149 171 17,900  Level Salt Lake Center
08:49AM 43.9981 -109.6467 218° Southwest 147 169 17,900 -120 Level Salt Lake Center
08:50AM 43.9675 -109.6797 218° Southwest 146 168 17,700 -120 Descending Salt Lake Center
08:51AM 43.9306 -109.7175 216° Southwest 152 175 17,700 -60 Level Salt Lake Center
08:52AM 43.8939 -109.7558 217° Southwest 160 184 17,600 120 Descending Salt Lake Center
08:53AM 43.8617 -109.7914 219° Southwest 152 175 18,000 180 Climbing Salt Lake Center
08:54AM 43.8303 -109.8289 221° Southwest 149 171 18,000  Level Salt Lake Center
08:55AM 43.7956 -109.8683 219° Southwest 157 181 18,000  Level Salt Lake Center
08:56AM 43.7619 -109.9072 220° Southwest 159 183 18,000  Level Salt Lake Center
08:57AM 43.7283 -109.9461 220° Southwest 156 180 18,000  Level Salt Lake Center
08:58AM 43.6939 -109.9842 219° Southwest 159 183 18,000  Level Salt Lake Center
08:59AM 43.6603 -110.0244 221° Southwest 161 185 18,000  Level Salt Lake Center
09:00AM 43.6261 -110.0614 218° Southwest 156 180 18,000  Level Salt Lake Center
09:01AM 43.5919 -110.1000 219° Southwest 157 181 18,000  Level Salt Lake Center
09:02AM 43.5572 -110.1378 218° Southwest 158 182 18,000  Level Salt Lake Center
09:03AM 43.5208 -110.1756 217° Southwest 162 186 18,000  Level Salt Lake Center
09:04AM 43.4856 -110.2139 218° Southwest 161 185 18,000  Level Salt Lake Center
09:05AM 43.4422 -110.2622 219° Southwest 166 191 18,000  Level Salt Lake Center
09:06AM 43.4078 -110.3031 221° Southwest 163 188 18,000  Level Salt Lake Center
09:07AM 43.3750 -110.3411 220° Southwest 157 181 18,000  Level Salt Lake Center
09:08AM 43.3419 -110.3775 219° Southwest 153 176 18,000  Level Salt Lake Center
09:09AM 43.3069 -110.4153 218° Southwest 157 181 18,000  Level Salt Lake Center
09:11AM 43.2714 -110.4508 216° Southwest 157 181 18,000  Level Salt Lake Center
09:12AM 43.2381 -110.4872 218° Southwest 162 186 18,000  Level Salt Lake Center
09:13AM 43.1981 -110.5308 218° Southwest 164 189 18,000  Level Salt Lake Center
09:14AM 43.1647 -110.5656 217° Southwest 158 182 18,000  Level Salt Lake Center
09:15AM 43.1300 -110.6017 217° Southwest 154 177 18,000  Level Salt Lake Center
09:16AM 43.0947 -110.6406 219° Southwest 159 183 18,000  Level Salt Lake Center
09:17AM 43.0600 -110.6808 220° Southwest 164 189 18,100  Climbing Salt Lake Center
09:18AM 43.0247 -110.7192 218° Southwest 162 186 18,100  Level Salt Lake Center
09:19AM 42.9892 -110.7589 219° Southwest 165 190 18,100  Level Salt Lake Center
09:20AM 42.9528 -110.7969 217° Southwest 164 189 18,100  Level Salt Lake Center
09:21AM 42.9167 -110.8369 219° Southwest 167 192 18,100  Level Salt Lake Center
09:22AM 42.8792 -110.8772 218° Southwest 171 197 18,100  Level Salt Lake Center
09:23AM 42.8428 -110.9158 218° Southwest 167 192 18,100  Level Salt Lake Center
09:24AM 42.8056 -110.9556 218° Southwest 170 196 18,100  Level Salt Lake Center
09:25AM 42.7692 -110.9947 218° Southwest 167 192 18,100  Level Salt Lake Center
09:26AM 42.7328 -111.0325 217° Southwest 166 191 18,100  Level Salt Lake Center
09:27AM 42.6978 -111.0708 219° Southwest 166 191 18,100  Level Salt Lake Center
09:28AM 42.6536 -111.1158 217° Southwest 167 192 18,100  Level Salt Lake Center
09:29AM 42.6178 -111.1544 218° Southwest 166 191 18,100  Level Salt Lake Center
09:30AM 42.5803 -111.1944 218° Southwest 171 197 18,100  Level Salt Lake Center
09:31AM 42.5456 -111.2322 219° Southwest 165 190 18,100  Level Salt Lake Center
09:32AM 42.5094 -111.2692 217° Southwest 164 189 18,100  Level Salt Lake Center
09:33AM 42.4731 -111.3089 219° Southwest 167 192 18,100 -60 Level Salt Lake Center
09:34AM 42.4372 -111.3486 219° Southwest 169 194 18,000 -60 Descending Salt Lake Center
09:35AM 42.4017 -111.3864 218° Southwest 165 190 18,000  Level Salt Lake Center
09:36AM 42.3653 -111.4233 217° Southwest 163 188 18,000  Level Salt Lake Center
09:37AM 42.3319 -111.4631 221° Southwest 161 185 18,000  Level Salt Lake Center
09:38AM 42.2994 -111.5064 225° Southwest 164 189 18,000  Level Salt Lake Center
09:39AM 42.2633 -111.5447 218° Southwest 165 190 18,000  Level Salt Lake Center
09:40AM 42.2206 -111.5922 219° Southwest 166 191 18,000  Level Salt Lake Center
09:41AM 42.1844 -111.6269 215° Southwest 163 188 18,100  Climbing Salt Lake Center
09:42AM 42.1475 -111.6611 214° Southwest 162 186 18,000  Descending Salt Lake Center
09:43AM 42.1108 -111.6969 216° Southwest 162 186 18,100 -60 Climbing Salt Lake Center
09:44AM 42.0733 -111.7333 216° Southwest 164 189 17,900 -240 Descending Salt Lake Center
09:45AM 42.0356 -111.7703 216° Southwest 167 192 17,700 -300 Descending Salt Lake Center
09:46AM 41.9914 -111.7986 205° Southwest 177 204 17,300 -540 Descending Salt Lake Center
09:47AM 41.9425 -111.8294 205° Southwest 190 219 16,700 -540 Descending Salt Lake Center
09:48AM 41.8931 -111.8597 205° Southwest 196 226 16,300 -540 Descending Salt Lake Center
09:49AM 41.8444 -111.8875 203° Southwest 192 221 15,700 -840 Descending Salt Lake Center
09:50AM 41.7833 -111.9211 202° Southwest 193 222 14,600 -960 Descending Salt Lake Center
09:51AM 41.7603 -111.9347 204° Southwest 197 227 14,200 -660 Descending Salt Lake Center
09:52AM 41.7106 -111.9664 205° Southwest 200 230 13,600 -600 Descending Salt Lake Center
09:53AM 41.6600 -111.9953 203° Southwest 200 230 13,000 -360 Descending Salt Lake Center
09:54AM 41.6158 -112.0219 204° Southwest 190 219 13,000  Level Salt Lake Center
09:54AM 41.5892 -112.0425 210° Southwest 182 209 13,000  Level Salt Lake Center
09:55AM 41.5433 -112.0656 201° Southwest 178 205 13,000 -120 Level Salt Lake Center
09:56AM 41.4944 -112.0803 193° South 181 208 12,800 -480 Descending Salt Lake Center
09:57AM 41.4644 -112.0853 187° South 187 215 12,300 -720 Descending Salt Lake Center
09:58AM 41.4164 -112.1044 197° South 199 229 11,800 -540 Descending Salt Lake Center
09:58AM 41.3900 -112.1192 203° Southwest 197 227 11,500 -540 Descending Salt Lake Center
09:59AM 41.3378 -112.1375 195° South 195 224 11,000 -300 Descending Salt Lake Center
10:00AM 41.2781 -112.1572 194° South 185 213 11,000  Level Salt Lake Center
10:02AM 41.2194 -112.1544 178° South 176 203 11,000  Level Salt Lake Center
10:02AM 41.1828 -112.1508 176° South 173 199 11,000  Level Salt Lake Center
10:03AM 41.1347 -112.1447 175° South 174 200 11,000  Level Salt Lake Center
10:04AM 41.0864 -112.1386 175° South 175 201 11,000  Level Salt Lake Center
10:05AM 41.0392 -112.1336 175° South 172 198 11,000  Level Salt Lake Center
10:06AM 40.9922 -112.1281 175° South 174 200 11,000  Level Salt Lake Center
10:07AM 40.9353 -112.1153 170° South 174 200 11,000  Level Salt Lake Center
10:08AM 40.9139 -112.1103 170° South 172 198 11,000  Level Salt Lake Center
10:08AM 40.8897 -112.1033 168° South 169 194 11,000  Level Salt Lake Center
10:09AM 40.8461 -112.0922 169° South 158 182 11,000  Level Salt Lake Center
10:10AM 40.8194 -112.0883 174° South 161 185 11,000 -420 Level Salt Lake Center
10:11AM 40.7769 -112.0800 172° South 164 189 10,400 -900 Descending Salt Lake Center
10:12AM 40.7564 -112.0744 168° South 166 191 9,700 -1,680 Descending Salt Lake Center
10:13AM 40.7239 -112.0336 136° Southeast 177 204 7,800 -1,980 Descending Salt Lake Center
10:13AM 40.7172 -111.9956 103° East 183 211 6,600 -1,560 Descending Salt Lake Center
10:14AM 40.7433 -111.9642 42° Northeast 123 142 5,200 -960 Descending Salt Lake Center
10:16AM 40.7800 -111.9619 North 103 119 4,300 -660 Descending Salt Lake Center